Carlton, Washington
Current Conditions -  °F | °C
As of 2:00 AM on Thursday 18 Dec 2014 (Local Time) from KOMK Reporting Station
Haze Haze  
Wind Chill:   Ceiling: 400
Heat Index:   Visibility: 1.2mi
Dew Point:   Wind: 3mph
Humidity: 96%   Direction: 230°SW
Pressure: 29.98"   Gusts: NA
Location:  48.25°N, 120.12°W
Report Text: KOMK 181000Z AUTO 23003KT 1 1/4SM BR BKN004 OVC023 01/00 A2998 RMK AO2 T00060000
Loading
Personal Weather Stations






























Interactive Weather Map New forecast layout! Learn more

10-Day Weather Forecast

Advertisements
Track Severe Weather on mobile